sim
Sign-in with your pilot id or email,
or register
Callsign
Passwort

Schedule Details

Flight Number: RYR2171 (1)
Departure: Bratislava M. R. Stefanik Airport (LZIB) at 09:20
Arrival: Thessaloniki International Airport (LGTS) at 11:10
Route: Ryanair Passenger Schedule. Enter filed route here before submitting Pirep.

Weather Information
Getting current METAR information for LZIB 211200Z 27008KT 240V310 9999 SCT036 BKN079 12/03 Q1026 NOSIG
Getting current METAR information for LGTS 211150Z 34014KT CAVOK 16/00 Q1023 NOSIG

Schedule Frequency

Route Map